createdAt,value
2018-12-13T00:02:08.524Z,4.13
2018-12-13T00:04:36.119Z,4.18
2018-12-13T00:07:03.676Z,4.17
2018-12-13T00:09:31.275Z,4.23
2018-12-13T00:11:58.840Z,4.21
2018-12-13T00:14:26.429Z,4.21
2018-12-13T00:16:53.977Z,4.20
2018-12-13T00:19:21.550Z,4.21
2018-12-13T00:21:49.109Z,4.25
2018-12-13T00:24:16.742Z,4.15
2018-12-13T00:26:44.322Z,4.20
2018-12-13T00:29:11.911Z,4.23
2018-12-13T00:31:39.497Z,4.17
2018-12-13T00:34:07.091Z,4.13
2018-12-13T00:36:39.707Z,4.10
2018-12-13T00:39:05.781Z,4.13
2018-12-13T00:41:33.344Z,4.12
2018-12-13T00:44:00.937Z,4.12
2018-12-13T00:46:28.523Z,4.08
2018-12-13T00:48:56.064Z,4.06
2018-12-13T00:51:23.645Z,4.00
2018-12-13T00:53:51.928Z,4.02
2018-12-13T00:56:19.512Z,4.03
2018-12-13T00:58:47.095Z,4.08
2018-12-13T01:01:14.693Z,3.96
2018-12-13T01:03:42.288Z,3.98
2018-12-13T01:06:09.840Z,4.01
2018-12-13T01:08:37.403Z,4.07
2018-12-13T01:11:04.977Z,4.02
2018-12-13T01:13:32.559Z,4.03
2018-12-13T01:16:00.145Z,3.98
2018-12-13T01:18:27.750Z,4.01
2018-12-13T01:20:55.382Z,3.96
2018-12-13T01:23:22.986Z,3.93
2018-12-13T01:25:50.560Z,3.90
2018-12-13T01:28:18.192Z,3.87
2018-12-13T01:30:45.955Z,3.90
2018-12-13T01:33:14.061Z,3.97
2018-12-13T01:35:41.799Z,3.92
2018-12-13T01:38:09.640Z,3.88
2018-12-13T01:40:37.280Z,3.92
2018-12-13T01:43:04.952Z,3.88
2018-12-13T01:45:35.867Z,3.90
2018-12-13T01:48:03.476Z,3.87
2018-12-13T01:50:31.105Z,3.99
2018-12-13T01:52:58.710Z,3.98
2018-12-13T01:55:26.430Z,3.94
2018-12-13T01:57:54.154Z,3.92
2018-12-13T02:00:22.261Z,4.02
2018-12-13T02:02:50.116Z,3.94
2018-12-13T02:05:18.218Z,3.91
2018-12-13T02:07:45.850Z,3.93
2018-12-13T02:10:13.438Z,3.92
2018-12-13T02:12:41.547Z,3.93
2018-12-13T02:15:09.784Z,3.94
2018-12-13T02:17:37.954Z,3.99
2018-12-13T02:20:05.934Z,3.95
2018-12-13T02:22:34.162Z,4.00
2018-12-13T02:25:01.815Z,4.01
2018-12-13T02:27:29.414Z,4.00
2018-12-13T02:29:56.992Z,4.01
2018-12-13T02:32:24.680Z,3.99
2018-12-13T02:34:52.314Z,3.99
2018-12-13T02:37:19.971Z,3.98
2018-12-13T02:39:47.571Z,4.03
2018-12-13T02:42:16.284Z,4.03
2018-12-13T02:44:44.244Z,4.03
2018-12-13T02:47:11.841Z,3.99
2018-12-13T02:49:39.443Z,4.03
2018-12-13T02:52:07.052Z,3.95
2018-12-13T02:54:34.623Z,3.90
2018-12-13T02:57:02.332Z,3.98
2018-12-13T02:59:29.916Z,3.97
2018-12-13T03:01:57.496Z,3.94
2018-12-13T03:04:25.183Z,3.98
2018-12-13T03:06:52.803Z,3.97
2018-12-13T03:09:20.485Z,3.99
2018-12-13T03:11:48.062Z,3.95
2018-12-13T03:14:15.682Z,3.94
2018-12-13T03:16:43.293Z,3.94
2018-12-13T03:19:10.873Z,3.97
2018-12-13T03:21:38.484Z,4.05
2018-12-13T03:24:06.083Z,4.06
2018-12-13T03:26:33.817Z,3.98
2018-12-13T03:29:01.444Z,4.01
2018-12-13T03:31:29.006Z,4.02
2018-12-13T03:33:56.558Z,3.98
2018-12-13T03:36:24.158Z,3.95
2018-12-13T03:38:51.700Z,3.92
2018-12-13T03:41:19.570Z,3.95
2018-12-13T03:43:47.119Z,3.95
2018-12-13T03:46:14.722Z,3.96
2018-12-13T03:48:42.277Z,3.92
2018-12-13T03:51:09.848Z,3.90
2018-12-13T03:53:37.435Z,3.91
2018-12-13T03:56:05.365Z,3.90
2018-12-13T03:58:33.252Z,3.84
2018-12-13T04:01:00.912Z,3.84
2018-12-13T04:03:28.467Z,3.84
2018-12-13T04:05:56.032Z,3.85
2018-12-13T04:08:23.619Z,3.85
2018-12-13T04:10:51.154Z,3.96
2018-12-13T04:13:18.711Z,3.93
2018-12-13T04:15:46.253Z,3.89
2018-12-13T04:18:13.885Z,3.81
2018-12-13T04:20:41.510Z,3.83
2018-12-13T04:23:09.102Z,3.82
2018-12-13T04:25:36.724Z,3.88
2018-12-13T04:28:04.303Z,3.89
2018-12-13T04:30:31.895Z,3.89
2018-12-13T04:32:59.476Z,3.90
2018-12-13T04:35:27.444Z,3.94
2018-12-13T04:37:55.106Z,3.93
2018-12-13T04:40:22.679Z,3.85
2018-12-13T04:42:50.254Z,3.87
2018-12-13T04:45:17.895Z,3.88
2018-12-13T04:47:45.506Z,3.87
2018-12-13T04:50:13.128Z,3.94
2018-12-13T04:52:40.838Z,3.90
2018-12-13T04:55:08.450Z,3.98
2018-12-13T04:57:36.015Z,3.95
2018-12-13T05:00:03.973Z,4.04
2018-12-13T05:02:31.684Z,3.98
2018-12-13T05:04:59.225Z,3.97
2018-12-13T05:07:26.893Z,3.96
2018-12-13T05:09:54.491Z,3.96
2018-12-13T05:12:22.077Z,3.88
2018-12-13T05:14:49.699Z,3.93
2018-12-13T05:17:17.612Z,3.94
2018-12-13T05:19:45.159Z,3.83
2018-12-13T05:22:12.751Z,3.79
2018-12-13T05:24:40.369Z,3.85
2018-12-13T05:27:08.267Z,3.80
2018-12-13T05:29:35.869Z,3.82
2018-12-13T05:32:03.408Z,3.85
2018-12-13T05:34:30.999Z,3.81
2018-12-13T05:36:58.575Z,3.83
2018-12-13T05:39:26.151Z,3.82
2018-12-13T05:41:53.902Z,3.78
2018-12-13T05:44:21.536Z,3.86
2018-12-13T05:46:49.264Z,3.88
2018-12-13T05:49:16.891Z,3.87
2018-12-13T05:51:44.488Z,3.83
2018-12-13T05:54:12.075Z,3.88
2018-12-13T05:56:40.019Z,3.83
2018-12-13T05:59:07.655Z,3.84
2018-12-13T06:01:35.225Z,3.84
2018-12-13T06:04:02.886Z,3.83
2018-12-13T06:06:30.446Z,3.82
2018-12-13T06:08:58.053Z,3.77
2018-12-13T06:11:25.901Z,3.76
2018-12-13T06:13:53.464Z,3.83
2018-12-13T06:16:21.105Z,3.84
2018-12-13T06:18:48.722Z,3.80
2018-12-13T06:21:16.864Z,3.88
2018-12-13T06:23:44.418Z,3.88
2018-12-13T06:26:12.116Z,3.82
2018-12-13T06:28:39.683Z,3.84
2018-12-13T06:31:07.290Z,3.80
2018-12-13T06:33:34.976Z,3.87
2018-12-13T06:36:02.560Z,3.86
2018-12-13T06:38:30.173Z,3.89
2018-12-13T06:40:57.805Z,3.86
2018-12-13T06:43:25.378Z,3.83
2018-12-13T06:45:53.019Z,3.90
2018-12-13T06:48:20.644Z,3.83
2018-12-13T06:50:48.237Z,3.87
2018-12-13T06:53:15.837Z,3.81
2018-12-13T06:55:43.400Z,3.84
2018-12-13T06:58:10.995Z,3.82
2018-12-13T07:00:38.897Z,3.80
2018-12-13T07:03:06.545Z,3.70
2018-12-13T07:05:34.386Z,3.70
2018-12-13T07:08:07.612Z,3.70
2018-12-13T07:10:31.880Z,3.70
2018-12-13T07:12:59.545Z,3.75
2018-12-13T07:15:27.237Z,3.76
2018-12-13T07:17:54.837Z,3.70
2018-12-13T07:20:22.491Z,3.67
2018-12-13T07:22:50.029Z,3.68
2018-12-13T07:25:17.649Z,3.74
2018-12-13T07:27:45.246Z,3.75
2018-12-13T07:30:12.943Z,3.69
2018-12-13T07:32:40.573Z,3.64
2018-12-13T07:35:08.183Z,3.67
2018-12-13T07:37:35.784Z,3.64
2018-12-13T07:40:04.705Z,3.69
2018-12-13T07:42:32.988Z,3.80
2018-12-13T07:45:02.010Z,3.74
2018-12-13T07:47:29.812Z,3.74
2018-12-13T07:49:57.748Z,3.75
2018-12-13T07:52:25.338Z,3.72
2018-12-13T07:54:52.935Z,3.71
2018-12-13T07:57:20.595Z,3.78
2018-12-13T07:59:48.514Z,3.83
2018-12-13T08:02:16.119Z,3.84
2018-12-13T08:04:43.686Z,3.92
2018-12-13T08:07:11.282Z,3.87
2018-12-13T08:09:38.852Z,3.84
2018-12-13T08:12:06.427Z,3.81
2018-12-13T08:14:35.033Z,3.76
2018-12-13T08:17:02.599Z,3.80
2018-12-13T08:19:30.529Z,3.79
2018-12-13T08:21:58.151Z,3.79
2018-12-13T08:24:25.961Z,3.82
2018-12-13T08:26:53.670Z,3.79
2018-12-13T08:29:21.397Z,3.82
2018-12-13T08:31:49.032Z,3.80
2018-12-13T08:34:16.651Z,3.79
2018-12-13T08:36:44.246Z,3.81
2018-12-13T08:39:11.868Z,3.85
2018-12-13T08:41:39.465Z,3.86
2018-12-13T08:44:07.095Z,3.91
2018-12-13T08:46:36.595Z,3.95
2018-12-13T08:49:04.681Z,3.98
2018-12-13T08:51:32.319Z,3.93
2018-12-13T08:53:59.913Z,3.92
2018-12-13T08:56:27.462Z,3.95
2018-12-13T08:58:55.384Z,3.98
2018-12-13T09:01:22.982Z,4.03
2018-12-13T09:03:50.810Z,4.06
2018-12-13T09:06:18.419Z,4.12
2018-12-13T09:08:46.354Z,4.07
2018-12-13T09:11:13.929Z,4.12
2018-12-13T09:13:41.586Z,4.17
2018-12-13T09:16:09.167Z,4.17
2018-12-13T09:18:36.737Z,4.13
2018-12-13T09:21:04.505Z,4.12
2018-12-13T09:23:32.158Z,4.13
2018-12-13T09:25:59.730Z,4.20
2018-12-13T09:28:27.313Z,4.16
2018-12-13T09:30:54.925Z,4.24
2018-12-13T09:33:22.691Z,4.18
2018-12-13T09:35:50.368Z,4.13
2018-12-13T09:38:18.137Z,4.16
2018-12-13T09:40:45.886Z,4.27
2018-12-13T09:43:13.462Z,4.19
2018-12-13T09:45:41.039Z,4.13
2018-12-13T09:48:08.657Z,4.16
2018-12-13T09:50:36.229Z,4.22
2018-12-13T09:53:03.795Z,4.19
2018-12-13T09:55:31.388Z,4.19
2018-12-13T09:57:59.051Z,4.26
2018-12-13T10:00:27.000Z,4.29
2018-12-13T10:05:35.232Z,4.34
2018-12-13T10:08:02.836Z,4.33
2018-12-13T10:10:30.411Z,4.36
2018-12-13T10:12:57.977Z,4.36
2018-12-13T10:15:31.836Z,4.25
2018-12-13T10:17:55.599Z,4.30
2018-12-13T10:20:23.225Z,4.31
2018-12-13T10:22:50.868Z,4.28
2018-12-13T10:25:18.463Z,4.28
2018-12-13T10:27:46.100Z,4.31
2018-12-13T10:30:13.729Z,4.33
2018-12-13T10:32:41.360Z,4.30
2018-12-13T10:35:11.419Z,4.31
2018-12-13T10:37:38.824Z,4.26
2018-12-13T10:40:06.743Z,4.20
2018-12-13T10:42:34.337Z,4.17
2018-12-13T10:45:01.962Z,4.20
2018-12-13T10:47:29.635Z,4.21
2018-12-13T10:49:57.637Z,4.27
2018-12-13T10:52:25.217Z,4.30
2018-12-13T10:54:52.837Z,4.36
2018-12-13T10:57:20.488Z,4.38
2018-12-13T10:59:48.091Z,4.33
2018-12-13T11:02:21.180Z,4.34
2018-12-13T11:04:48.814Z,4.33
2018-12-13T11:07:16.451Z,4.41
2018-12-13T11:09:44.035Z,4.45
2018-12-13T11:12:11.907Z,4.45
2018-12-13T11:14:39.561Z,4.42
2018-12-13T11:17:07.325Z,4.33
2018-12-13T11:19:34.860Z,4.30
2018-12-13T11:22:02.502Z,4.32
2018-12-13T11:24:30.102Z,4.34
2018-12-13T11:27:01.777Z,4.30
2018-12-13T11:29:41.340Z,4.30
2018-12-13T11:32:08.947Z,4.26
2018-12-13T11:34:36.619Z,4.27
2018-12-13T11:37:04.268Z,4.25
2018-12-13T11:39:31.970Z,4.20
2018-12-13T11:41:59.598Z,4.22
2018-12-13T11:44:27.263Z,4.26
2018-12-13T11:46:54.878Z,4.29
2018-12-13T11:49:23.406Z,4.41
2018-12-13T11:51:52.918Z,4.29
2018-12-13T11:54:24.536Z,4.29
2018-12-13T11:56:52.115Z,4.30
2018-12-13T11:59:19.942Z,4.28
2018-12-13T12:01:50.374Z,4.22
2018-12-13T12:04:19.451Z,4.17
2018-12-13T12:06:47.147Z,4.20
2018-12-13T12:09:14.871Z,4.27
2018-12-13T12:11:42.975Z,4.30
2018-12-13T12:14:10.560Z,4.28
2018-12-13T12:16:38.223Z,4.26
2018-12-13T12:19:05.870Z,4.21
2018-12-13T12:21:33.672Z,4.23
2018-12-13T12:24:01.461Z,4.21
2018-12-13T12:26:29.070Z,4.19
2018-12-13T12:28:56.659Z,4.22
2018-12-13T12:31:24.255Z,4.19
2018-12-13T12:33:51.853Z,4.09
2018-12-13T12:36:19.528Z,4.01
2018-12-13T12:38:47.122Z,4.07
2018-12-13T12:41:14.701Z,4.03
2018-12-13T12:43:42.309Z,4.02
2018-12-13T12:46:09.847Z,3.99
2018-12-13T12:48:37.486Z,4.07
2018-12-13T12:51:05.068Z,4.07
2018-12-13T12:53:32.752Z,4.02
2018-12-13T12:56:00.374Z,4.03
2018-12-13T12:58:27.974Z,3.96
2018-12-13T13:00:55.591Z,3.87
2018-12-13T13:03:23.186Z,3.88
2018-12-13T13:05:50.928Z,3.84
2018-12-13T13:08:18.583Z,3.88
2018-12-13T13:10:46.289Z,3.95
2018-12-13T13:13:13.978Z,3.88
2018-12-13T13:15:41.607Z,3.82
2018-12-13T13:18:09.221Z,3.80
2018-12-13T13:20:36.795Z,3.79
2018-12-13T13:23:04.456Z,3.81
2018-12-13T13:25:32.131Z,3.80
2018-12-13T13:27:59.724Z,3.82
2018-12-13T13:30:27.452Z,3.81
2018-12-13T13:32:55.069Z,3.86
2018-12-13T13:35:22.689Z,3.86
2018-12-13T13:37:50.374Z,3.84
2018-12-13T13:40:17.931Z,3.81
2018-12-13T13:42:45.548Z,3.77
2018-12-13T13:45:13.331Z,3.77
2018-12-13T13:47:41.118Z,3.78
2018-12-13T13:50:09.379Z,3.83
2018-12-13T13:52:37.724Z,3.85
2018-12-13T13:55:05.906Z,3.80
2018-12-13T13:57:33.546Z,3.83
2018-12-13T14:00:01.145Z,3.87
2018-12-13T14:02:28.802Z,3.82
2018-12-13T14:04:56.417Z,3.81
2018-12-13T14:07:24.023Z,3.75
2018-12-13T14:09:51.753Z,3.78
2018-12-13T14:12:19.518Z,3.76
2018-12-13T14:14:47.177Z,3.72
2018-12-13T14:17:14.834Z,3.75
2018-12-13T14:19:42.495Z,3.79
2018-12-13T14:22:10.119Z,3.82
2018-12-13T14:24:37.809Z,3.76
2018-12-13T14:27:05.893Z,3.74
2018-12-13T14:29:33.514Z,3.74
2018-12-13T14:32:01.102Z,3.74
2018-12-13T14:34:28.710Z,3.75
2018-12-13T14:36:56.360Z,3.68
2018-12-13T14:39:23.983Z,3.73
2018-12-13T14:41:51.647Z,3.71
2018-12-13T14:44:19.277Z,3.69
2018-12-13T14:46:46.888Z,3.71
2018-12-13T14:49:14.593Z,3.74
2018-12-13T14:51:42.180Z,3.78
2018-12-13T14:54:10.080Z,3.76
2018-12-13T14:56:37.695Z,3.80
2018-12-13T14:59:05.369Z,3.80
2018-12-13T15:01:34.350Z,3.79
2018-12-13T15:04:02.201Z,3.75
2018-12-13T15:06:29.764Z,3.77
2018-12-13T15:08:57.453Z,3.74
2018-12-13T15:11:25.080Z,3.76
2018-12-13T15:13:53.320Z,3.72
2018-12-13T15:16:21.261Z,3.76
2018-12-13T15:18:48.991Z,3.78
2018-12-13T15:21:16.707Z,3.81
2018-12-13T15:23:44.386Z,3.82
2018-12-13T15:26:11.997Z,3.82
2018-12-13T15:28:39.562Z,3.79
2018-12-13T15:31:07.292Z,3.71
2018-12-13T15:33:35.260Z,3.72
2018-12-13T15:36:02.980Z,3.70
2018-12-13T15:38:30.835Z,3.69
2018-12-13T15:40:58.967Z,3.72
2018-12-13T15:43:26.585Z,3.81
2018-12-13T15:45:54.564Z,3.79
2018-12-13T15:48:22.181Z,3.79
2018-12-13T15:50:49.851Z,3.81
2018-12-13T15:53:17.439Z,3.81
2018-12-13T15:55:45.151Z,3.80
2018-12-13T15:58:12.753Z,3.82
2018-12-13T16:00:40.376Z,3.88
2018-12-13T16:03:08.055Z,3.92
2018-12-13T16:05:35.667Z,3.84
2018-12-13T16:08:03.516Z,3.83
2018-12-13T16:10:31.137Z,3.82
2018-12-13T16:12:58.811Z,3.82
2018-12-13T16:15:26.674Z,3.79
2018-12-13T16:17:54.263Z,3.81
2018-12-13T16:20:21.883Z,3.83
2018-12-13T16:22:49.613Z,3.94
2018-12-13T16:25:17.418Z,3.95
2018-12-13T16:27:44.993Z,3.88
2018-12-13T16:30:12.771Z,3.87
2018-12-13T16:32:40.429Z,3.87
2018-12-13T16:35:08.365Z,3.88
2018-12-13T16:37:35.931Z,3.89
2018-12-13T16:40:10.145Z,3.84
2018-12-13T16:42:33.863Z,3.80
2018-12-13T16:45:01.426Z,3.80
2018-12-13T16:47:29.343Z,3.83
2018-12-13T16:49:56.941Z,3.79
2018-12-13T16:52:24.822Z,3.78
2018-12-13T16:54:52.512Z,3.75
2018-12-13T16:57:20.138Z,3.75
2018-12-13T16:59:48.014Z,3.81
2018-12-13T17:02:15.714Z,3.78
2018-12-13T17:04:43.518Z,3.77
2018-12-13T17:07:11.125Z,3.79
2018-12-13T17:09:38.746Z,3.77
2018-12-13T17:12:06.409Z,3.76
2018-12-13T17:14:34.121Z,3.74
2018-12-13T17:17:01.723Z,3.70
2018-12-13T17:19:29.323Z,3.70
2018-12-13T17:21:57.243Z,3.73
2018-12-13T17:24:24.829Z,3.71
2018-12-13T17:26:52.436Z,3.66
2018-12-13T17:29:20.325Z,3.71
2018-12-13T17:31:48.169Z,3.73
2018-12-13T17:34:15.739Z,3.69
2018-12-13T17:36:43.439Z,3.77
2018-12-13T17:39:11.011Z,3.74
2018-12-13T17:41:38.647Z,3.73
2018-12-13T17:44:06.251Z,3.73
2018-12-13T17:46:33.825Z,3.78
2018-12-13T17:49:01.398Z,3.75
2018-12-13T17:51:28.984Z,3.73
2018-12-13T17:53:56.878Z,3.74
2018-12-13T17:56:24.577Z,3.69
2018-12-13T17:58:52.184Z,3.63
2018-12-13T18:01:19.930Z,3.60
2018-12-13T18:03:47.723Z,3.57
2018-12-13T18:06:15.382Z,3.59
2018-12-13T18:08:43.070Z,3.57
2018-12-13T18:11:10.644Z,3.56
2018-12-13T18:13:38.244Z,3.59
2018-12-13T18:16:05.965Z,3.57
2018-12-13T18:18:33.614Z,3.51
2018-12-13T18:21:01.305Z,3.51
2018-12-13T18:23:28.920Z,3.49
2018-12-13T18:25:56.665Z,3.47
2018-12-13T18:28:24.269Z,3.44
2018-12-13T18:30:52.113Z,3.42
2018-12-13T18:33:20.214Z,3.33
2018-12-13T18:35:47.814Z,3.26
2018-12-13T18:38:15.419Z,3.24
2018-12-13T18:40:43.044Z,3.28
2018-12-13T18:43:10.606Z,3.31
2018-12-13T18:45:38.175Z,3.30
2018-12-13T18:48:05.885Z,3.35
2018-12-13T18:50:33.746Z,3.38
2018-12-13T18:53:01.403Z,3.41
2018-12-13T18:55:29.088Z,3.44
2018-12-13T18:57:56.749Z,3.44
2018-12-13T19:00:24.320Z,3.45
2018-12-13T19:02:52.305Z,3.47
2018-12-13T19:05:20.122Z,3.50
2018-12-13T19:07:47.735Z,3.47
2018-12-13T19:10:15.394Z,3.51
2018-12-13T19:12:43.042Z,3.48
2018-12-13T19:15:10.853Z,3.47
2018-12-13T19:17:38.460Z,3.47
2018-12-13T19:20:06.824Z,3.44
2018-12-13T19:22:37.438Z,3.47
2018-12-13T19:25:06.674Z,3.47
2018-12-13T19:27:34.374Z,3.55
2018-12-13T19:30:02.068Z,3.50
2018-12-13T19:32:29.768Z,3.50
2018-12-13T19:35:00.241Z,3.52
2018-12-13T19:37:26.977Z,3.51
2018-12-13T19:39:54.604Z,3.53
2018-12-13T19:42:22.183Z,3.43
2018-12-13T19:44:50.229Z,3.34
2018-12-13T19:47:17.969Z,3.36
2018-12-13T19:49:46.548Z,3.36
2018-12-13T19:52:16.757Z,3.37
2018-12-13T19:54:44.485Z,3.35
2018-12-13T19:57:13.461Z,3.36
2018-12-13T19:59:41.319Z,3.35
2018-12-13T20:02:10.725Z,3.35
2018-12-13T20:04:38.379Z,3.36
2018-12-13T20:07:06.800Z,3.43
2018-12-13T20:09:34.377Z,3.41
2018-12-13T20:12:02.007Z,3.28
2018-12-13T20:14:29.661Z,3.29
2018-12-13T20:16:57.226Z,3.26
2018-12-13T20:19:25.114Z,3.24
2018-12-13T20:21:52.798Z,3.27
2018-12-13T20:24:20.486Z,3.24
2018-12-13T20:26:48.073Z,3.21
2018-12-13T20:29:16.123Z,3.18
2018-12-13T20:31:43.712Z,3.10
2018-12-13T20:34:13.024Z,3.11
2018-12-13T20:36:40.579Z,3.07
2018-12-13T20:39:08.970Z,3.09
2018-12-13T20:41:37.562Z,3.16
2018-12-13T20:44:05.195Z,3.26
2018-12-13T20:46:33.839Z,3.25
2018-12-13T20:49:01.586Z,3.29
2018-12-13T20:51:29.939Z,3.31
2018-12-13T20:53:57.563Z,3.31
2018-12-13T20:56:25.237Z,3.28
2018-12-13T20:58:52.858Z,3.31
2018-12-13T21:01:21.352Z,3.30
2018-12-13T21:03:49.262Z,3.37
2018-12-13T21:06:19.283Z,3.35
2018-12-13T21:08:47.345Z,3.34
2018-12-13T21:11:15.025Z,3.33
2018-12-13T21:13:42.609Z,3.35
2018-12-13T21:16:10.255Z,3.35
2018-12-13T21:18:37.993Z,3.31
2018-12-13T21:21:06.068Z,3.27
2018-12-13T21:23:33.650Z,3.29
2018-12-13T21:26:01.394Z,3.28
2018-12-13T21:28:29.187Z,3.35
2018-12-13T21:30:56.766Z,3.29
2018-12-13T21:33:24.384Z,3.34
2018-12-13T21:35:52.067Z,3.33
2018-12-13T21:38:19.755Z,3.28
2018-12-13T21:40:48.712Z,3.28
2018-12-13T21:43:16.600Z,3.26
2018-12-13T21:45:44.181Z,3.23
2018-12-13T21:48:11.804Z,3.26
2018-12-13T21:50:39.398Z,3.29
2018-12-13T21:53:07.057Z,3.26
2018-12-13T21:55:34.666Z,3.30
2018-12-13T21:58:02.239Z,3.27
2018-12-13T22:00:29.855Z,3.25
2018-12-13T22:02:57.423Z,3.23
2018-12-13T22:05:24.974Z,3.26
2018-12-13T22:07:52.575Z,3.27
2018-12-13T22:10:20.141Z,3.27
2018-12-13T22:12:47.870Z,3.27
2018-12-13T22:15:15.414Z,3.26
2018-12-13T22:17:43.043Z,3.28
2018-12-13T22:20:11.004Z,3.32
2018-12-13T22:22:38.612Z,3.30
2018-12-13T22:25:06.612Z,3.24
2018-12-13T22:27:34.510Z,3.26
2018-12-13T22:30:02.065Z,3.21
2018-12-13T22:32:29.627Z,3.15
2018-12-13T22:34:57.226Z,3.09
2018-12-13T22:37:24.954Z,3.10
2018-12-13T22:39:52.535Z,3.03
2018-12-13T22:42:20.108Z,3.06
2018-12-13T22:44:47.676Z,3.11
2018-12-13T22:47:15.502Z,3.17
2018-12-13T22:49:43.386Z,3.17
2018-12-13T22:52:10.990Z,3.16
2018-12-13T22:54:38.604Z,3.17
2018-12-13T22:57:06.204Z,3.15
2018-12-13T22:59:34.130Z,3.14
2018-12-13T23:02:02.001Z,3.10
2018-12-13T23:04:29.636Z,3.09
2018-12-13T23:06:57.239Z,3.12
2018-12-13T23:09:25.082Z,3.09
2018-12-13T23:11:52.949Z,3.10
2018-12-13T23:14:20.536Z,3.08
2018-12-13T23:16:48.150Z,3.05
2018-12-13T23:19:15.737Z,3.05
2018-12-13T23:21:43.296Z,3.06
2018-12-13T23:24:10.903Z,3.09
2018-12-13T23:26:38.835Z,3.07
2018-12-13T23:29:06.698Z,3.06
2018-12-13T23:31:34.361Z,3.07
2018-12-13T23:34:01.981Z,3.09
2018-12-13T23:36:29.558Z,3.03
2018-12-13T23:38:57.177Z,3.07
2018-12-13T23:41:24.742Z,3.03
2018-12-13T23:43:52.315Z,3.07
2018-12-13T23:46:19.854Z,3.06
2018-12-13T23:48:47.400Z,3.03
2018-12-13T23:51:15.121Z,3.05
2018-12-13T23:53:42.870Z,3.08
2018-12-13T23:56:10.633Z,3.07
2018-12-13T23:58:38.515Z,3.10
